sensor_id;sensor_type;location;lat;lon;timestamp;temperature;humidity
20815;DHT22;10568;48.176;16.316;2022-10-20T00:01:22;7.10;99.90
20815;DHT22;10568;48.176;16.316;2022-10-20T00:03:49;7.00;99.90
20815;DHT22;10568;48.176;16.316;2022-10-20T00:06:18;7.00;99.90
20815;DHT22;10568;48.176;16.316;2022-10-20T00:08:45;7.00;99.90
20815;DHT22;10568;48.176;16.316;2022-10-20T00:11:14;7.00;99.90
20815;DHT22;10568;48.176;16.316;2022-10-20T00:13:41;6.90;99.90
20815;DHT22;10568;48.176;16.316;2022-10-20T00:16:07;6.90;99.90
20815;DHT22;10568;48.176;16.316;2022-10-20T00:18:36;6.80;99.90
20815;DHT22;10568;48.176;16.316;2022-10-20T00:23:32;6.80;99.90
20815;DHT22;10568;48.176;16.316;2022-10-20T00:26:06;6.70;99.90
20815;DHT22;10568;48.176;16.316;2022-10-20T00:28:32;6.70;99.90
20815;DHT22;10568;48.176;16.316;2022-10-20T00:30:58;6.60;99.90
20815;DHT22;10568;48.176;16.316;2022-10-20T00:33:24;6.70;99.90
20815;DHT22;10568;48.176;16.316;2022-10-20T00:35:50;6.60;99.90
20815;DHT22;10568;48.176;16.316;2022-10-20T00:38:15;6.60;99.90
20815;DHT22;10568;48.176;16.316;2022-10-20T00:40:41;6.60;99.90
20815;DHT22;10568;48.176;16.316;2022-10-20T00:43:12;6.60;99.90
20815;DHT22;10568;48.176;16.316;2022-10-20T00:45:39;6.50;99.90
20815;DHT22;10568;48.176;16.316;2022-10-20T00:48:11;6.50;99.90
20815;DHT22;10568;48.176;16.316;2022-10-20T00:53:06;6.40;99.90
20815;DHT22;10568;48.176;16.316;2022-10-20T00:55:35;6.30;99.90
20815;DHT22;10568;48.176;16.316;2022-10-20T00:58:02;6.30;99.90
20815;DHT22;10568;48.176;16.316;2022-10-20T01:00:29;6.30;99.90
20815;DHT22;10568;48.176;16.316;2022-10-20T01:02:57;6.30;99.90
20815;DHT22;10568;48.176;16.316;2022-10-20T01:05:24;6.30;99.90
20815;DHT22;10568;48.176;16.316;2022-10-20T01:07:49;6.20;99.90
20815;DHT22;10568;48.176;16.316;2022-10-20T01:10:16;6.20;99.90
20815;DHT22;10568;48.176;16.316;2022-10-20T01:13:06;6.10;99.90
20815;DHT22;10568;48.176;16.316;2022-10-20T01:30:13;5.90;99.90
20815;DHT22;10568;48.176;16.316;2022-10-20T01:43:16;5.80;99.90
20815;DHT22;10568;48.176;16.316;2022-10-20T01:45:45;5.80;99.90
20815;DHT22;10568;48.176;16.316;2022-10-20T01:48:13;5.80;99.90
20815;DHT22;10568;48.176;16.316;2022-10-20T01:50:41;5.70;99.90
20815;DHT22;10568;48.176;16.316;2022-10-20T01:53:08;5.70;99.90
20815;DHT22;10568;48.176;16.316;2022-10-20T01:55:35;5.60;99.90
20815;DHT22;10568;48.176;16.316;2022-10-20T01:58:13;5.60;99.90
20815;DHT22;10568;48.176;16.316;2022-10-20T02:00:41;5.60;99.90
20815;DHT22;10568;48.176;16.316;2022-10-20T02:06:00;5.50;99.90
20815;DHT22;10568;48.176;16.316;2022-10-20T02:08:48;5.60;99.90
20815;DHT22;10568;48.176;16.316;2022-10-20T02:13:48;5.50;99.90
20815;DHT22;10568;48.176;16.316;2022-10-20T02:16:21;5.50;99.90
20815;DHT22;10568;48.176;16.316;2022-10-20T02:18:48;5.40;99.90
20815;DHT22;10568;48.176;16.316;2022-10-20T02:21:15;5.40;99.90
20815;DHT22;10568;48.176;16.316;2022-10-20T02:23:43;5.30;99.90
20815;DHT22;10568;48.176;16.316;2022-10-20T02:26:13;5.30;99.90
20815;DHT22;10568;48.176;16.316;2022-10-20T02:28:43;5.30;99.90
20815;DHT22;10568;48.176;16.316;2022-10-20T02:31:10;5.30;99.90
20815;DHT22;10568;48.176;16.316;2022-10-20T02:33:36;5.20;99.90
20815;DHT22;10568;48.176;16.316;2022-10-20T02:36:04;5.20;99.90
20815;DHT22;10568;48.176;16.316;2022-10-20T02:38:30;5.20;99.90
20815;DHT22;10568;48.176;16.316;2022-10-20T02:40:56;5.10;99.90
20815;DHT22;10568;48.176;16.316;2022-10-20T02:43:22;5.10;99.90
20815;DHT22;10568;48.176;16.316;2022-10-20T02:45:48;5.10;99.90
20815;DHT22;10568;48.176;16.316;2022-10-20T02:48:13;5.10;99.90
20815;DHT22;10568;48.176;16.316;2022-10-20T02:50:39;5.00;99.90
20815;DHT22;10568;48.176;16.316;2022-10-20T02:53:05;5.00;99.90
20815;DHT22;10568;48.176;16.316;2022-10-20T02:55:31;5.00;99.90
20815;DHT22;10568;48.176;16.316;2022-10-20T02:57:56;4.90;99.90
20815;DHT22;10568;48.176;16.316;2022-10-20T03:00:22;4.90;99.90
20815;DHT22;10568;48.176;16.316;2022-10-20T03:02:48;4.90;99.90
20815;DHT22;10568;48.176;16.316;2022-10-20T03:05:14;4.90;99.90
20815;DHT22;10568;48.176;16.316;2022-10-20T03:07:40;4.80;99.90
20815;DHT22;10568;48.176;16.316;2022-10-20T03:10:06;4.80;99.90
20815;DHT22;10568;48.176;16.316;2022-10-20T03:12:33;4.80;99.90
20815;DHT22;10568;48.176;16.316;2022-10-20T03:14:59;4.80;99.90
20815;DHT22;10568;48.176;16.316;2022-10-20T03:17:24;4.70;99.90
20815;DHT22;10568;48.176;16.316;2022-10-20T03:19:50;4.70;99.90
20815;DHT22;10568;48.176;16.316;2022-10-20T03:22:16;4.70;99.90
20815;DHT22;10568;48.176;16.316;2022-10-20T03:24:41;4.60;99.90
20815;DHT22;10568;48.176;16.316;2022-10-20T03:27:07;4.60;99.90
20815;DHT22;10568;48.176;16.316;2022-10-20T03:29:33;4.60;99.90
20815;DHT22;10568;48.176;16.316;2022-10-20T03:31:59;4.60;99.90
20815;DHT22;10568;48.176;16.316;2022-10-20T03:34:25;4.50;99.90
20815;DHT22;10568;48.176;16.316;2022-10-20T03:36:50;4.50;99.90
20815;DHT22;10568;48.176;16.316;2022-10-20T03:39:16;4.50;99.90
20815;DHT22;10568;48.176;16.316;2022-10-20T03:41:42;4.50;99.90
20815;DHT22;10568;48.176;16.316;2022-10-20T03:44:09;4.50;99.90
20815;DHT22;10568;48.176;16.316;2022-10-20T03:46:35;4.40;99.90
20815;DHT22;10568;48.176;16.316;2022-10-20T03:49:01;4.40;99.90
20815;DHT22;10568;48.176;16.316;2022-10-20T03:51:27;4.40;99.90
20815;DHT22;10568;48.176;16.316;2022-10-20T03:53:53;4.30;99.90
20815;DHT22;10568;48.176;16.316;2022-10-20T03:56:19;4.30;99.90
20815;DHT22;10568;48.176;16.316;2022-10-20T03:58:45;4.30;99.90
20815;DHT22;10568;48.176;16.316;2022-10-20T04:01:14;4.20;99.90
20815;DHT22;10568;48.176;16.316;2022-10-20T04:03:40;4.20;99.90
20815;DHT22;10568;48.176;16.316;2022-10-20T04:06:06;4.20;99.90
20815;DHT22;10568;48.176;16.316;2022-10-20T04:08:32;4.10;99.90
20815;DHT22;10568;48.176;16.316;2022-10-20T04:10:57;4.10;99.90
20815;DHT22;10568;48.176;16.316;2022-10-20T04:13:24;4.10;99.90
20815;DHT22;10568;48.176;16.316;2022-10-20T04:15:49;4.10;99.90
20815;DHT22;10568;48.176;16.316;2022-10-20T04:18:15;4.00;99.90
20815;DHT22;10568;48.176;16.316;2022-10-20T04:20:41;4.00;99.90
20815;DHT22;10568;48.176;16.316;2022-10-20T04:23:06;4.00;99.90
20815;DHT22;10568;48.176;16.316;2022-10-20T04:25:32;4.00;99.90
20815;DHT22;10568;48.176;16.316;2022-10-20T04:27:58;3.90;99.90
20815;DHT22;10568;48.176;16.316;2022-10-20T04:30:25;3.90;99.90
20815;DHT22;10568;48.176;16.316;2022-10-20T04:32:50;3.90;99.90
20815;DHT22;10568;48.176;16.316;2022-10-20T04:35:16;3.90;99.90
20815;DHT22;10568;48.176;16.316;2022-10-20T04:37:42;3.80;99.90
20815;DHT22;10568;48.176;16.316;2022-10-20T04:40:08;3.80;99.90
20815;DHT22;10568;48.176;16.316;2022-10-20T04:42:34;3.80;99.90
20815;DHT22;10568;48.176;16.316;2022-10-20T04:44:59;3.80;99.90
20815;DHT22;10568;48.176;16.316;2022-10-20T04:47:25;3.70;99.90
20815;DHT22;10568;48.176;16.316;2022-10-20T04:49:55;3.70;99.90
20815;DHT22;10568;48.176;16.316;2022-10-20T04:52:21;3.70;99.90
20815;DHT22;10568;48.176;16.316;2022-10-20T04:54:46;3.70;99.90
20815;DHT22;10568;48.176;16.316;2022-10-20T04:57:12;3.70;99.90
20815;DHT22;10568;48.176;16.316;2022-10-20T04:59:38;3.60;99.90
20815;DHT22;10568;48.176;16.316;2022-10-20T05:02:03;3.60;99.90
20815;DHT22;10568;48.176;16.316;2022-10-20T05:04:29;3.60;99.90
20815;DHT22;10568;48.176;16.316;2022-10-20T05:06:55;3.60;99.90
20815;DHT22;10568;48.176;16.316;2022-10-20T05:09:21;3.60;99.90
20815;DHT22;10568;48.176;16.316;2022-10-20T05:11:46;3.60;99.90
20815;DHT22;10568;48.176;16.316;2022-10-20T05:14:12;3.60;99.90
20815;DHT22;10568;48.176;16.316;2022-10-20T05:16:38;3.50;99.90
20815;DHT22;10568;48.176;16.316;2022-10-20T05:19:04;3.60;99.90
20815;DHT22;10568;48.176;16.316;2022-10-20T05:21:30;3.60;99.90
20815;DHT22;10568;48.176;16.316;2022-10-20T05:24:01;3.60;99.90
20815;DHT22;10568;48.176;16.316;2022-10-20T05:26:29;3.60;99.90
20815;DHT22;10568;48.176;16.316;2022-10-20T05:29:03;3.60;99.90
20815;DHT22;10568;48.176;16.316;2022-10-20T05:31:28;3.50;99.90
20815;DHT22;10568;48.176;16.316;2022-10-20T05:33:56;3.60;99.90
20815;DHT22;10568;48.176;16.316;2022-10-20T05:36:25;3.60;99.90
20815;DHT22;10568;48.176;16.316;2022-10-20T05:38:52;3.60;99.90
20815;DHT22;10568;48.176;16.316;2022-10-20T05:41:21;3.60;99.90
20815;DHT22;10568;48.176;16.316;2022-10-20T05:43:51;3.60;99.90
20815;DHT22;10568;48.176;16.316;2022-10-20T05:46:18;3.60;99.90
20815;DHT22;10568;48.176;16.316;2022-10-20T05:48:45;3.60;99.90
20815;DHT22;10568;48.176;16.316;2022-10-20T05:51:14;3.60;99.90
20815;DHT22;10568;48.176;16.316;2022-10-20T05:53:40;3.60;99.90
20815;DHT22;10568;48.176;16.316;2022-10-20T05:56:07;3.60;99.90
20815;DHT22;10568;48.176;16.316;2022-10-20T05:58:33;3.60;99.90
20815;DHT22;10568;48.176;16.316;2022-10-20T06:01:07;3.60;99.90
20815;DHT22;10568;48.176;16.316;2022-10-20T06:03:33;3.70;99.90
20815;DHT22;10568;48.176;16.316;2022-10-20T06:06:00;3.70;99.90
20815;DHT22;10568;48.176;16.316;2022-10-20T06:08:33;3.70;99.90
20815;DHT22;10568;48.176;16.316;2022-10-20T06:11:07;3.80;99.90
20815;DHT22;10568;48.176;16.316;2022-10-20T06:13:34;3.80;99.90
20815;DHT22;10568;48.176;16.316;2022-10-20T06:16:05;3.90;99.90
20815;DHT22;10568;48.176;16.316;2022-10-20T06:18:31;3.90;99.90
20815;DHT22;10568;48.176;16.316;2022-10-20T06:21:03;4.00;99.90
20815;DHT22;10568;48.176;16.316;2022-10-20T06:23:28;4.00;99.90
20815;DHT22;10568;48.176;16.316;2022-10-20T06:25:54;4.00;99.90
20815;DHT22;10568;48.176;16.316;2022-10-20T06:28:25;4.10;99.90
20815;DHT22;10568;48.176;16.316;2022-10-20T06:30:53;4.10;99.90
20815;DHT22;10568;48.176;16.316;2022-10-20T06:33:18;4.20;99.90
20815;DHT22;10568;48.176;16.316;2022-10-20T06:35:44;4.20;99.90
20815;DHT22;10568;48.176;16.316;2022-10-20T06:41:24;4.40;99.90
20815;DHT22;10568;48.176;16.316;2022-10-20T06:43:51;4.40;99.90
20815;DHT22;10568;48.176;16.316;2022-10-20T06:46:23;4.50;99.90
20815;DHT22;10568;48.176;16.316;2022-10-20T06:48:49;4.60;99.90
20815;DHT22;10568;48.176;16.316;2022-10-20T06:51:16;4.60;99.90
20815;DHT22;10568;48.176;16.316;2022-10-20T06:53:49;4.70;99.90
20815;DHT22;10568;48.176;16.316;2022-10-20T06:56:17;4.80;99.90
20815;DHT22;10568;48.176;16.316;2022-10-20T06:58:45;4.80;99.90
20815;DHT22;10568;48.176;16.316;2022-10-20T07:01:14;5.00;99.90
20815;DHT22;10568;48.176;16.316;2022-10-20T07:03:41;5.10;99.90
20815;DHT22;10568;48.176;16.316;2022-10-20T07:06:07;5.20;99.90
20815;DHT22;10568;48.176;16.316;2022-10-20T07:08:36;5.30;99.90
20815;DHT22;10568;48.176;16.316;2022-10-20T07:11:10;5.40;99.90
20815;DHT22;10568;48.176;16.316;2022-10-20T07:13:37;5.40;99.90
20815;DHT22;10568;48.176;16.316;2022-10-20T07:16:03;5.50;99.90
20815;DHT22;10568;48.176;16.316;2022-10-20T07:18:30;5.70;99.90
20815;DHT22;10568;48.176;16.316;2022-10-20T07:21:02;5.80;99.90
20815;DHT22;10568;48.176;16.316;2022-10-20T07:23:29;5.90;99.90
20815;DHT22;10568;48.176;16.316;2022-10-20T07:26:05;6.10;99.90
20815;DHT22;10568;48.176;16.316;2022-10-20T07:28:32;6.20;99.90
20815;DHT22;10568;48.176;16.316;2022-10-20T07:31:03;6.40;99.90
20815;DHT22;10568;48.176;16.316;2022-10-20T07:33:29;6.50;99.90
20815;DHT22;10568;48.176;16.316;2022-10-20T07:35:55;6.60;99.90
20815;DHT22;10568;48.176;16.316;2022-10-20T07:38:20;6.70;99.90
20815;DHT22;10568;48.176;16.316;2022-10-20T07:40:46;6.80;99.90
20815;DHT22;10568;48.176;16.316;2022-10-20T07:43:12;6.90;99.90
20815;DHT22;10568;48.176;16.316;2022-10-20T07:45:38;7.00;99.90
20815;DHT22;10568;48.176;16.316;2022-10-20T07:48:04;7.10;99.90
20815;DHT22;10568;48.176;16.316;2022-10-20T07:50:32;7.20;99.90
20815;DHT22;10568;48.176;16.316;2022-10-20T07:52:58;7.30;99.90
20815;DHT22;10568;48.176;16.316;2022-10-20T07:55:24;7.40;99.90
20815;DHT22;10568;48.176;16.316;2022-10-20T07:57:49;7.50;99.90
20815;DHT22;10568;48.176;16.316;2022-10-20T08:00:15;7.60;99.90
20815;DHT22;10568;48.176;16.316;2022-10-20T08:02:41;7.80;99.90
20815;DHT22;10568;48.176;16.316;2022-10-20T08:05:07;7.90;99.90
20815;DHT22;10568;48.176;16.316;2022-10-20T08:07:34;8.00;99.90
20815;DHT22;10568;48.176;16.316;2022-10-20T08:10:00;8.20;99.90
20815;DHT22;10568;48.176;16.316;2022-10-20T08:12:25;8.20;99.90
20815;DHT22;10568;48.176;16.316;2022-10-20T08:14:51;8.30;99.90
20815;DHT22;10568;48.176;16.316;2022-10-20T08:17:17;8.40;99.90
20815;DHT22;10568;48.176;16.316;2022-10-20T08:19:44;8.50;99.90
20815;DHT22;10568;48.176;16.316;2022-10-20T08:22:10;8.60;99.90
20815;DHT22;10568;48.176;16.316;2022-10-20T08:24:35;8.70;99.90
20815;DHT22;10568;48.176;16.316;2022-10-20T08:27:01;8.80;99.90
20815;DHT22;10568;48.176;16.316;2022-10-20T08:29:27;8.90;99.90
20815;DHT22;10568;48.176;16.316;2022-10-20T08:31:53;9.00;99.90
20815;DHT22;10568;48.176;16.316;2022-10-20T08:34:19;9.00;99.90
20815;DHT22;10568;48.176;16.316;2022-10-20T08:36:45;9.20;99.90
20815;DHT22;10568;48.176;16.316;2022-10-20T08:39:10;9.30;99.90
20815;DHT22;10568;48.176;16.316;2022-10-20T08:41:43;9.30;99.90
20815;DHT22;10568;48.176;16.316;2022-10-20T08:44:17;9.40;99.90
20815;DHT22;10568;48.176;16.316;2022-10-20T08:46:44;9.50;99.90
20815;DHT22;10568;48.176;16.316;2022-10-20T08:49:21;9.60;99.90
20815;DHT22;10568;48.176;16.316;2022-10-20T08:51:47;9.70;99.90
20815;DHT22;10568;48.176;16.316;2022-10-20T08:54:14;9.90;99.90
20815;DHT22;10568;48.176;16.316;2022-10-20T08:56:40;10.10;99.90
20815;DHT22;10568;48.176;16.316;2022-10-20T08:59:34;10.30;99.90
20815;DHT22;10568;48.176;16.316;2022-10-20T09:02:02;10.60;99.90
20815;DHT22;10568;48.176;16.316;2022-10-20T09:04:55;10.80;99.90
20815;DHT22;10568;48.176;16.316;2022-10-20T09:07:32;11.00;99.90
20815;DHT22;10568;48.176;16.316;2022-10-20T09:12:48;11.20;99.90
20815;DHT22;10568;48.176;16.316;2022-10-20T09:15:16;11.30;99.90
20815;DHT22;10568;48.176;16.316;2022-10-20T09:17:47;11.30;99.90
20815;DHT22;10568;48.176;16.316;2022-10-20T09:20:39;11.30;99.90
20815;DHT22;10568;48.176;16.316;2022-10-20T09:23:40;11.30;99.90
20815;DHT22;10568;48.176;16.316;2022-10-20T09:26:04;11.30;99.90
20815;DHT22;10568;48.176;16.316;2022-10-20T09:28:34;11.40;99.90
20815;DHT22;10568;48.176;16.316;2022-10-20T09:31:00;11.40;99.90
20815;DHT22;10568;48.176;16.316;2022-10-20T09:33:34;11.50;99.90
20815;DHT22;10568;48.176;16.316;2022-10-20T09:36:04;11.70;99.90
20815;DHT22;10568;48.176;16.316;2022-10-20T09:38:33;12.00;99.90
20815;DHT22;10568;48.176;16.316;2022-10-20T09:41:14;12.30;99.90
20815;DHT22;10568;48.176;16.316;2022-10-20T09:44:00;12.70;99.90
20815;DHT22;10568;48.176;16.316;2022-10-20T09:46:29;13.00;99.90
20815;DHT22;10568;48.176;16.316;2022-10-20T09:48:57;13.30;99.90
20815;DHT22;10568;48.176;16.316;2022-10-20T09:51:25;13.50;99.90
20815;DHT22;10568;48.176;16.316;2022-10-20T09:53:59;13.70;99.90
20815;DHT22;10568;48.176;16.316;2022-10-20T09:56:34;14.10;99.90
20815;DHT22;10568;48.176;16.316;2022-10-20T09:59:04;14.20;99.90
20815;DHT22;10568;48.176;16.316;2022-10-20T10:01:32;14.40;99.90
20815;DHT22;10568;48.176;16.316;2022-10-20T10:03:58;14.90;99.90
20815;DHT22;10568;48.176;16.316;2022-10-20T10:06:39;14.90;99.90
20815;DHT22;10568;48.176;16.316;2022-10-20T10:12:18;15.30;99.90
20815;DHT22;10568;48.176;16.316;2022-10-20T10:14:59;15.60;99.90
20815;DHT22;10568;48.176;16.316;2022-10-20T10:17:40;15.70;99.90
20815;DHT22;10568;48.176;16.316;2022-10-20T10:20:37;15.90;99.90
20815;DHT22;10568;48.176;16.316;2022-10-20T10:23:25;16.20;99.90
20815;DHT22;10568;48.176;16.316;2022-10-20T10:25:52;16.10;99.90
20815;DHT22;10568;48.176;16.316;2022-10-20T10:28:34;16.20;99.90
20815;DHT22;10568;48.176;16.316;2022-10-20T10:33:40;16.10;99.90
20815;DHT22;10568;48.176;16.316;2022-10-20T10:36:14;16.20;99.90
20815;DHT22;10568;48.176;16.316;2022-10-20T10:38:43;16.20;99.90
20815;DHT22;10568;48.176;16.316;2022-10-20T10:44:17;16.40;99.90
20815;DHT22;10568;48.176;16.316;2022-10-20T10:53:17;16.10;99.90
20815;DHT22;10568;48.176;16.316;2022-10-20T10:55:28;16.10;99.90
20815;DHT22;10568;48.176;16.316;2022-10-20T10:58:02;16.20;99.90
20815;DHT22;10568;48.176;16.316;2022-10-20T11:00:51;16.10;99.90
20815;DHT22;10568;48.176;16.316;2022-10-20T11:09:00;16.10;99.90
20815;DHT22;10568;48.176;16.316;2022-10-20T11:15:00;16.00;99.90
20815;DHT22;10568;48.176;16.316;2022-10-20T11:17:37;16.00;99.90
20815;DHT22;10568;48.176;16.316;2022-10-20T11:20:20;15.70;99.90
20815;DHT22;10568;48.176;16.316;2022-10-20T11:28:41;15.60;99.90
20815;DHT22;10568;48.176;16.316;2022-10-20T11:31:43;15.60;99.90
20815;DHT22;10568;48.176;16.316;2022-10-20T11:37:22;15.70;99.90
20815;DHT22;10568;48.176;16.316;2022-10-20T11:40:03;15.70;99.90
20815;DHT22;10568;48.176;16.316;2022-10-20T11:45:51;15.70;99.90
20815;DHT22;10568;48.176;16.316;2022-10-20T12:11:02;15.50;99.90
20815;DHT22;10568;48.176;16.316;2022-10-20T12:13:55;15.40;99.90
20815;DHT22;10568;48.176;16.316;2022-10-20T12:21:59;15.10;99.90
20815;DHT22;10568;48.176;16.316;2022-10-20T12:34:52;14.80;99.90
20815;DHT22;10568;48.176;16.316;2022-10-20T12:37:27;14.80;99.90
20815;DHT22;10568;48.176;16.316;2022-10-20T12:39:55;14.70;99.90
20815;DHT22;10568;48.176;16.316;2022-10-20T12:42:27;14.70;99.90
20815;DHT22;10568;48.176;16.316;2022-10-20T12:44:57;14.70;99.90
20815;DHT22;10568;48.176;16.316;2022-10-20T12:47:47;14.70;99.90
20815;DHT22;10568;48.176;16.316;2022-10-20T12:50:40;14.80;99.90
20815;DHT22;10568;48.176;16.316;2022-10-20T13:01:29;14.70;99.90
20815;DHT22;10568;48.176;16.316;2022-10-20T13:03:56;14.70;99.90
20815;DHT22;10568;48.176;16.316;2022-10-20T13:17:17;14.70;99.90
20815;DHT22;10568;48.176;16.316;2022-10-20T13:19:48;14.70;99.90
20815;DHT22;10568;48.176;16.316;2022-10-20T13:22:38;14.70;99.90
20815;DHT22;10568;48.176;16.316;2022-10-20T13:25:35;14.70;99.90
20815;DHT22;10568;48.176;16.316;2022-10-20T13:28:15;14.70;99.90
20815;DHT22;10568;48.176;16.316;2022-10-20T13:33:54;14.70;99.90
20815;DHT22;10568;48.176;16.316;2022-10-20T13:36:42;14.70;99.90
20815;DHT22;10568;48.176;16.316;2022-10-20T13:45:16;14.80;99.90
20815;DHT22;10568;48.176;16.316;2022-10-20T13:47:50;14.80;99.90
20815;DHT22;10568;48.176;16.316;2022-10-20T13:51:22;14.90;99.90
20815;DHT22;10568;48.176;16.316;2022-10-20T13:53:26;14.90;99.90
20815;DHT22;10568;48.176;16.316;2022-10-20T13:58:42;14.90;99.90
20815;DHT22;10568;48.176;16.316;2022-10-20T14:01:25;14.90;99.90
20815;DHT22;10568;48.176;16.316;2022-10-20T14:03:52;15.00;99.90
20815;DHT22;10568;48.176;16.316;2022-10-20T14:08:57;15.00;99.90
20815;DHT22;10568;48.176;16.316;2022-10-20T14:11:30;14.90;99.90
20815;DHT22;10568;48.176;16.316;2022-10-20T14:13:58;14.90;99.90
20815;DHT22;10568;48.176;16.316;2022-10-20T14:16:50;14.70;99.90
20815;DHT22;10568;48.176;16.316;2022-10-20T14:19:19;14.70;99.90
20815;DHT22;10568;48.176;16.316;2022-10-20T14:21:48;14.60;99.90
20815;DHT22;10568;48.176;16.316;2022-10-20T14:24:36;14.60;99.90
20815;DHT22;10568;48.176;16.316;2022-10-20T14:27:05;14.50;99.90
20815;DHT22;10568;48.176;16.316;2022-10-20T14:29:39;14.40;99.90
20815;DHT22;10568;48.176;16.316;2022-10-20T14:32:05;14.40;99.90
20815;DHT22;10568;48.176;16.316;2022-10-20T14:40:30;14.20;99.90
20815;DHT22;10568;48.176;16.316;2022-10-20T14:43:13;14.10;99.90
20815;DHT22;10568;48.176;16.316;2022-10-20T14:45:53;14.10;99.90
20815;DHT22;10568;48.176;16.316;2022-10-20T14:48:20;14.00;99.90
20815;DHT22;10568;48.176;16.316;2022-10-20T14:50:46;13.90;99.90
20815;DHT22;10568;48.176;16.316;2022-10-20T14:55:47;13.80;99.90
20815;DHT22;10568;48.176;16.316;2022-10-20T15:01:14;13.60;99.90
20815;DHT22;10568;48.176;16.316;2022-10-20T15:03:40;13.50;99.90
20815;DHT22;10568;48.176;16.316;2022-10-20T15:06:10;13.40;99.90
20815;DHT22;10568;48.176;16.316;2022-10-20T15:08:36;13.30;99.90
20815;DHT22;10568;48.176;16.316;2022-10-20T15:11:02;13.30;99.90
20815;DHT22;10568;48.176;16.316;2022-10-20T15:13:30;13.30;99.90
20815;DHT22;10568;48.176;16.316;2022-10-20T15:15:58;13.30;99.90
20815;DHT22;10568;48.176;16.316;2022-10-20T15:18:25;13.20;99.90
20815;DHT22;10568;48.176;16.316;2022-10-20T15:20:53;13.10;99.90
20815;DHT22;10568;48.176;16.316;2022-10-20T15:23:27;13.00;99.90
20815;DHT22;10568;48.176;16.316;2022-10-20T15:26:01;13.00;99.90
20815;DHT22;10568;48.176;16.316;2022-10-20T15:28:38;12.90;99.90
20815;DHT22;10568;48.176;16.316;2022-10-20T15:33:32;12.80;99.90
20815;DHT22;10568;48.176;16.316;2022-10-20T15:35:58;12.60;99.90
20815;DHT22;10568;48.176;16.316;2022-10-20T15:38:26;12.60;99.90
20815;DHT22;10568;48.176;16.316;2022-10-20T15:40:51;12.50;99.90
20815;DHT22;10568;48.176;16.316;2022-10-20T15:43:17;12.50;99.90
20815;DHT22;10568;48.176;16.316;2022-10-20T15:45:51;12.40;99.90
20815;DHT22;10568;48.176;16.316;2022-10-20T15:48:21;12.20;99.90
20815;DHT22;10568;48.176;16.316;2022-10-20T15:54:13;12.20;99.90
20815;DHT22;10568;48.176;16.316;2022-10-20T15:56:40;12.10;99.90
20815;DHT22;10568;48.176;16.316;2022-10-20T16:02:21;12.00;99.90
20815;DHT22;10568;48.176;16.316;2022-10-20T16:04:46;12.00;99.90
20815;DHT22;10568;48.176;16.316;2022-10-20T16:07:12;12.00;99.90
20815;DHT22;10568;48.176;16.316;2022-10-20T16:09:38;11.80;99.90
20815;DHT22;10568;48.176;16.316;2022-10-20T16:12:03;11.80;99.90
20815;DHT22;10568;48.176;16.316;2022-10-20T16:14:29;11.70;99.90
20815;DHT22;10568;48.176;16.316;2022-10-20T16:16:55;11.60;99.90
20815;DHT22;10568;48.176;16.316;2022-10-20T16:19:21;11.50;99.90
20815;DHT22;10568;48.176;16.316;2022-10-20T16:21:47;11.50;99.90
20815;DHT22;10568;48.176;16.316;2022-10-20T16:24:12;11.50;99.90
20815;DHT22;10568;48.176;16.316;2022-10-20T16:26:38;11.60;99.90
20815;DHT22;10568;48.176;16.316;2022-10-20T16:29:04;11.50;99.90
20815;DHT22;10568;48.176;16.316;2022-10-20T16:31:30;11.50;99.90
20815;DHT22;10568;48.176;16.316;2022-10-20T16:33:58;11.40;99.90
20815;DHT22;10568;48.176;16.316;2022-10-20T16:36:24;11.40;99.90
20815;DHT22;10568;48.176;16.316;2022-10-20T16:38:54;11.40;99.90
20815;DHT22;10568;48.176;16.316;2022-10-20T16:41:21;11.40;99.90
20815;DHT22;10568;48.176;16.316;2022-10-20T16:43:46;11.30;99.90
20815;DHT22;10568;48.176;16.316;2022-10-20T16:46:13;11.40;99.90
20815;DHT22;10568;48.176;16.316;2022-10-20T16:48:39;11.40;99.90
20815;DHT22;10568;48.176;16.316;2022-10-20T16:51:07;11.30;99.90
20815;DHT22;10568;48.176;16.316;2022-10-20T16:53:34;11.30;99.90
20815;DHT22;10568;48.176;16.316;2022-10-20T16:56:00;11.20;99.90
20815;DHT22;10568;48.176;16.316;2022-10-20T16:58:26;11.20;99.90
20815;DHT22;10568;48.176;16.316;2022-10-20T17:01:02;11.20;99.90
20815;DHT22;10568;48.176;16.316;2022-10-20T17:03:29;11.20;99.90
20815;DHT22;10568;48.176;16.316;2022-10-20T17:05:57;11.20;99.90
20815;DHT22;10568;48.176;16.316;2022-10-20T17:08:23;11.10;99.90
20815;DHT22;10568;48.176;16.316;2022-10-20T17:11:00;11.10;99.90
20815;DHT22;10568;48.176;16.316;2022-10-20T17:13:27;11.10;99.90
20815;DHT22;10568;48.176;16.316;2022-10-20T17:15:54;11.10;99.90
20815;DHT22;10568;48.176;16.316;2022-10-20T17:21:27;10.90;99.90
20815;DHT22;10568;48.176;16.316;2022-10-20T17:23:53;10.90;99.90
20815;DHT22;10568;48.176;16.316;2022-10-20T17:26:21;10.90;99.90
20815;DHT22;10568;48.176;16.316;2022-10-20T17:28:57;10.80;99.90
20815;DHT22;10568;48.176;16.316;2022-10-20T17:31:23;10.90;99.90
20815;DHT22;10568;48.176;16.316;2022-10-20T17:33:50;10.90;99.90
20815;DHT22;10568;48.176;16.316;2022-10-20T17:36:16;10.90;99.90
20815;DHT22;10568;48.176;16.316;2022-10-20T17:38:43;10.90;99.90
20815;DHT22;10568;48.176;16.316;2022-10-20T17:41:14;10.90;99.90
20815;DHT22;10568;48.176;16.316;2022-10-20T17:43:40;10.80;99.90
20815;DHT22;10568;48.176;16.316;2022-10-20T17:46:09;10.90;99.90
20815;DHT22;10568;48.176;16.316;2022-10-20T17:48:35;10.90;99.90
20815;DHT22;10568;48.176;16.316;2022-10-20T17:51:04;10.80;99.90
20815;DHT22;10568;48.176;16.316;2022-10-20T17:53:35;10.90;99.90
20815;DHT22;10568;48.176;16.316;2022-10-20T17:56:06;10.90;99.90
20815;DHT22;10568;48.176;16.316;2022-10-20T17:58:33;11.00;99.90
20815;DHT22;10568;48.176;16.316;2022-10-20T18:01:13;10.90;99.90
20815;DHT22;10568;48.176;16.316;2022-10-20T18:03:40;11.00;99.90
20815;DHT22;10568;48.176;16.316;2022-10-20T18:06:08;11.00;99.90
20815;DHT22;10568;48.176;16.316;2022-10-20T18:08:34;11.00;99.90
20815;DHT22;10568;48.176;16.316;2022-10-20T18:11:00;11.10;99.90
20815;DHT22;10568;48.176;16.316;2022-10-20T18:13:26;11.00;99.90
20815;DHT22;10568;48.176;16.316;2022-10-20T18:15:51;11.00;99.90
20815;DHT22;10568;48.176;16.316;2022-10-20T18:18:17;11.00;99.90
20815;DHT22;10568;48.176;16.316;2022-10-20T18:20:51;11.00;99.90
20815;DHT22;10568;48.176;16.316;2022-10-20T18:23:17;10.90;99.90
20815;DHT22;10568;48.176;16.316;2022-10-20T18:25:43;10.80;99.90
20815;DHT22;10568;48.176;16.316;2022-10-20T18:28:08;10.80;99.90
20815;DHT22;10568;48.176;16.316;2022-10-20T18:30:36;10.80;99.90
20815;DHT22;10568;48.176;16.316;2022-10-20T18:33:02;10.80;99.90